createdAt,value
2018-03-30T00:00:51.264Z,98660.59
2018-03-30T00:06:55.882Z,98666.13
2018-03-30T00:13:00.534Z,98673.19
2018-03-30T00:19:04.961Z,98667.41
2018-03-30T00:25:09.397Z,98677.48
2018-03-30T00:31:13.868Z,98676.44
2018-03-30T00:37:18.321Z,98667.86
2018-03-30T00:43:22.777Z,98668.27
2018-03-30T00:49:28.708Z,98664.98
2018-03-30T00:55:33.144Z,98652.98
2018-03-30T01:01:39.180Z,98655.13
2018-03-30T01:07:43.629Z,98649.67
2018-03-30T01:13:48.145Z,98649.44
2018-03-30T01:19:52.621Z,98648.30
2018-03-30T01:25:57.077Z,98652.77
2018-03-30T01:32:02.308Z,98650.03
2018-03-30T01:38:06.712Z,98643.23
2018-03-30T01:44:11.144Z,98636.96
2018-03-30T01:50:15.590Z,98642.81
2018-03-30T01:56:20.062Z,98636.53
2018-03-30T02:02:24.497Z,98630.67
2018-03-30T02:08:28.938Z,98618.08
2018-03-30T02:14:33.371Z,98619.39
2018-03-30T02:20:37.848Z,98600.77
2018-03-30T02:26:42.292Z,98603.25
2018-03-30T02:32:46.732Z,98600.20
2018-03-30T02:38:51.152Z,98598.04
2018-03-30T02:44:55.592Z,98592.64
2018-03-30T02:51:00.047Z,98592.61
2018-03-30T02:57:04.473Z,98590.17
2018-03-30T03:03:08.921Z,98578.28
2018-03-30T03:09:13.373Z,98574.42
2018-03-30T03:15:17.840Z,98560.28
2018-03-30T03:21:22.297Z,98555.41
2018-03-30T03:27:26.742Z,98543.34
2018-03-30T03:33:31.180Z,98543.36
2018-03-30T03:39:35.619Z,98542.95
2018-03-30T03:45:40.047Z,98547.80
2018-03-30T03:51:44.476Z,98542.52
2018-03-30T03:57:48.932Z,98535.81
2018-03-30T04:03:53.371Z,98542.89
2018-03-30T04:09:57.828Z,98554.06
2018-03-30T04:16:02.277Z,98554.45
2018-03-30T04:22:06.723Z,98551.63
2018-03-30T04:28:11.153Z,98547.47
2018-03-30T04:34:15.613Z,98555.33
2018-03-30T04:40:20.059Z,98558.71
2018-03-30T04:46:24.492Z,98562.10
2018-03-30T04:52:29.269Z,98569.63
2018-03-30T04:58:34.473Z,98572.52
2018-03-30T05:04:38.909Z,98566.75
2018-03-30T05:10:43.341Z,98562.52
2018-03-30T05:16:47.788Z,98570.31
2018-03-30T05:22:52.231Z,98566.27
2018-03-30T05:28:56.720Z,98554.33
2018-03-30T05:35:01.156Z,98543.52
2018-03-30T05:41:05.615Z,98548.95
2018-03-30T05:47:10.133Z,98551.82
2018-03-30T05:53:14.585Z,98551.08
2018-03-30T05:59:19.044Z,98552.02
2018-03-30T06:05:23.486Z,98546.28
2018-03-30T06:11:27.955Z,98539.78
2018-03-30T06:17:33.154Z,98544.06
2018-03-30T06:23:37.591Z,98541.47
2018-03-30T06:29:42.061Z,98546.22
2018-03-30T06:35:46.502Z,98551.84
2018-03-30T06:41:50.941Z,98554.66
2018-03-30T06:47:55.439Z,98551.19
2018-03-30T06:54:00.662Z,98552.27
2018-03-30T07:00:05.095Z,98548.16
2018-03-30T07:06:09.520Z,98552.20
2018-03-30T07:12:13.953Z,98564.31
2018-03-30T07:18:18.485Z,98549.89
2018-03-30T07:24:23.692Z,98550.95
2018-03-30T07:30:28.197Z,98562.45
2018-03-30T07:36:32.655Z,98554.95
2018-03-30T07:42:37.357Z,98548.31
2018-03-30T07:48:42.584Z,98542.28
2018-03-30T07:54:47.023Z,98533.70
2018-03-30T08:00:51.477Z,98522.84
2018-03-30T08:06:55.924Z,98511.33
2018-03-30T08:13:00.408Z,98512.25
2018-03-30T08:19:05.592Z,98519.05
2018-03-30T08:25:10.087Z,98508.02
2018-03-30T08:31:14.510Z,98501.17
2018-03-30T08:37:18.962Z,98486.27
2018-03-30T08:43:23.445Z,98482.66
2018-03-30T08:49:27.875Z,98488.77
2018-03-30T08:55:33.077Z,98479.53
2018-03-30T09:01:37.528Z,98463.89
2018-03-30T09:07:42.748Z,98461.95
2018-03-30T09:13:47.204Z,98443.05
2018-03-30T09:19:51.662Z,98441.34
2018-03-30T09:25:56.103Z,98436.42
2018-03-30T09:32:00.584Z,98428.59
2018-03-30T09:38:05.052Z,98413.20
2018-03-30T09:44:10.292Z,98400.19
2018-03-30T09:50:14.756Z,98390.68
2018-03-30T09:56:19.964Z,98383.09
2018-03-30T10:02:29.304Z,98375.08
2018-03-30T10:08:33.777Z,98362.39
2018-03-30T10:14:38.261Z,98347.57
2018-03-30T10:20:42.834Z,98330.30
2018-03-30T10:26:47.282Z,98333.58
2018-03-30T10:32:51.729Z,98322.30
2018-03-30T10:38:56.199Z,98313.66
2018-03-30T10:45:00.609Z,98305.20
2018-03-30T10:51:05.057Z,98300.56
2018-03-30T10:57:09.501Z,98292.28
2018-03-30T11:03:14.111Z,98295.00
2018-03-30T11:09:19.311Z,98285.56
2018-03-30T11:15:23.839Z,98271.50
2018-03-30T11:21:28.310Z,98271.54
2018-03-30T11:27:32.741Z,98265.38
2018-03-30T11:33:37.181Z,98254.55
2018-03-30T11:39:41.621Z,98241.05
2018-03-30T11:45:46.072Z,98221.45
2018-03-30T11:51:50.538Z,98210.63
2018-03-30T11:57:54.995Z,98183.84
2018-03-30T12:03:59.449Z,98174.39
2018-03-30T12:10:03.894Z,98143.53
2018-03-30T12:16:08.345Z,98135.28
2018-03-30T12:22:12.813Z,98116.48
2018-03-30T12:28:17.288Z,98116.79
2018-03-30T12:34:21.746Z,98116.45
2018-03-30T12:40:26.212Z,98113.97
2018-03-30T12:46:30.663Z,98101.86
2018-03-30T12:52:35.889Z,98091.48
2018-03-30T12:58:40.340Z,98084.48
2018-03-30T13:04:44.803Z,98069.66
2018-03-30T13:10:50.114Z,98079.94
2018-03-30T13:16:54.635Z,98067.55
2018-03-30T13:22:59.847Z,98054.31
2018-03-30T13:29:04.355Z,98046.72
2018-03-30T13:35:08.815Z,98034.89
2018-03-30T13:41:13.276Z,98043.55
2018-03-30T13:47:17.736Z,98025.94
2018-03-30T13:53:37.617Z,98029.55
2018-03-30T13:59:45.378Z,98025.06
2018-03-30T14:06:06.825Z,98019.89
2018-03-30T14:12:17.639Z,98018.23
2018-03-30T14:18:33.779Z,98004.05
2018-03-30T14:24:40.131Z,97989.20
2018-03-30T14:30:50.849Z,97983.59
2018-03-30T14:37:04.397Z,97973.69
2018-03-30T14:43:21.881Z,97974.23
2018-03-30T14:49:31.009Z,97968.11
2018-03-30T14:55:49.661Z,97965.05
2018-03-30T15:02:00.244Z,97951.50
2018-03-30T15:14:41.309Z,97936.58
2018-03-30T15:20:51.019Z,97928.02
2018-03-30T15:27:04.282Z,97915.27
2018-03-30T15:50:23.003Z,97883.92
2018-03-30T15:56:28.836Z,97876.97
2018-03-30T16:02:33.328Z,97873.73
2018-03-30T16:08:37.948Z,97871.11
2018-03-30T16:14:43.324Z,97881.45
2018-03-30T16:20:46.973Z,97878.48
2018-03-30T16:26:50.631Z,97880.02
2018-03-30T16:32:54.300Z,97876.90
2018-03-30T16:38:58.152Z,97873.77
2018-03-30T16:45:02.385Z,97871.38
2018-03-30T16:51:05.688Z,97859.05
2018-03-30T16:57:09.159Z,97845.98
2018-03-30T17:03:12.455Z,97833.88
2018-03-30T17:09:15.751Z,97821.03
2018-03-30T17:15:19.079Z,97821.95
2018-03-30T17:21:22.408Z,97833.95
2018-03-30T17:27:25.807Z,97844.68
2018-03-30T17:33:29.562Z,97857.42
2018-03-30T17:39:34.495Z,97858.16
2018-03-30T17:45:37.941Z,97871.25
2018-03-30T17:51:41.275Z,97872.83
2018-03-30T17:57:44.921Z,97879.12
2018-03-30T18:03:48.247Z,97882.48
2018-03-30T18:09:51.534Z,97884.58
2018-03-30T18:15:54.916Z,97891.12
2018-03-30T18:21:58.212Z,97889.97
2018-03-30T18:28:01.552Z,97885.75
2018-03-30T18:34:04.888Z,97900.77
2018-03-30T18:40:08.948Z,97889.77
2018-03-30T18:46:13.167Z,97900.86
2018-03-30T18:52:16.485Z,97916.23
2018-03-30T18:58:19.857Z,97907.72
2018-03-30T19:04:23.184Z,97894.59
2018-03-30T19:10:26.802Z,97879.00
2018-03-30T19:16:30.999Z,97876.09
2018-03-30T19:22:35.054Z,97868.16
2018-03-30T19:28:38.635Z,97868.69
2018-03-30T19:34:42.691Z,97848.27
2018-03-30T19:40:46.967Z,97849.14
2018-03-30T19:46:50.275Z,97831.04
2018-03-30T19:52:53.716Z,97823.61
2018-03-30T19:58:57.659Z,97820.23
2018-03-30T20:05:00.983Z,97818.11
2018-03-30T20:11:05.047Z,97813.52
2018-03-30T20:17:09.398Z,97811.27
2018-03-30T20:23:12.726Z,97805.32
2018-03-30T20:29:16.000Z,97793.33
2018-03-30T20:35:19.380Z,97809.94
2018-03-30T20:41:22.980Z,97803.95
2018-03-30T20:47:26.851Z,97795.19
2018-03-30T20:53:31.001Z,97793.90
2018-03-30T20:59:34.401Z,97787.14
2018-03-30T21:05:37.694Z,97786.83
2018-03-30T21:11:40.979Z,97789.28
2018-03-30T21:17:44.279Z,97791.93
2018-03-30T21:23:47.583Z,97788.11
2018-03-30T21:29:50.981Z,97784.23
2018-03-30T21:35:54.303Z,97776.77
2018-03-30T21:41:57.662Z,97785.69
2018-03-30T21:48:01.741Z,97782.95
2018-03-30T21:54:05.843Z,97774.58
2018-03-30T22:00:09.187Z,97771.27
2018-03-30T22:06:12.528Z,97769.30
2018-03-30T22:12:15.815Z,97766.55
2018-03-30T22:18:19.178Z,97768.30
2018-03-30T22:24:22.581Z,97767.87
2018-03-30T22:30:26.219Z,97753.03
2018-03-30T22:36:29.717Z,97740.25
2018-03-30T22:42:33.088Z,97752.53
2018-03-30T22:48:36.380Z,97750.06
2018-03-30T22:54:39.776Z,97739.01
2018-03-30T23:00:43.116Z,97715.28
2018-03-30T23:06:46.443Z,97711.73
2018-03-30T23:12:50.076Z,97695.84
2018-03-30T23:18:53.733Z,97694.34
2018-03-30T23:24:58.103Z,97683.03
2018-03-30T23:31:01.900Z,97687.18
2018-03-30T23:37:05.526Z,97694.86
2018-03-30T23:43:09.211Z,97689.98
2018-03-30T23:49:12.884Z,97696.67
2018-03-30T23:55:16.539Z,97697.46
